Time;durP1;ratioP1;P1;durP2;ratioP2;P2;SDS_P1;SDS_P2;PMS_P1;PMS_P2;Temp;Humidity;BMP_temperature;BMP_pressure;BME280_temperature;BME280_humidity;BME280_pressure;Samples;Min_cycle;Max_cycle;Signal;HPM_P1;HPM_P2
2023/08/01 00:02:18;;;;;;;;;;;;;;;;;;5014264;28;19925;-91
2023/08/01 00:04:44;;;;;;;;;;;;;;;;;;5014296;28;19929;-92
2023/08/01 00:07:09;;;;;;;;;;;;;;;;;;4997868;28;19922;-91
2023/08/01 00:09:35;;;;;;;;;;;;;;;;;;5014093;28;20012;-92
2023/08/01 00:12:01;;;;;;;;;;;;;;;;;;4998222;28;19925;-91
2023/08/01 00:14:27;;;;;;;;;;;;;;;;;;5014008;28;19945;-91
2023/08/01 00:16:53;;;;;;;;;;;;;;;;;;4997955;28;20377;-93
2023/08/01 00:19:19;;;;;;;;;;;;;;;;;;5015551;28;19921;-92
2023/08/01 00:21:46;;;;;;;;;;;;;;;;;;4997858;28;19928;-93
2023/08/01 00:24:12;;;;;;;;;;;;;;;;;;4997407;28;20369;-90
2023/08/01 00:26:38;;;;;;;;;;;;;;;;;;5013932;28;19932;-92
2023/08/01 00:29:04;;;;;;;;;;;;;;;;;;5014578;28;19984;-93
2023/08/01 00:31:30;;;;;;;;;;;;;;;;;;4997967;28;19921;-92
2023/08/01 00:33:57;;;;;;;;;;;;;;;;;;4998095;28;19922;-93
2023/08/01 00:36:23;;;;;;;;;;;;;;;;;;4998073;28;19921;-93
2023/08/01 00:38:49;;;;;;;;;;;;;;;;;;5015271;28;20426;-93
2023/08/01 00:41:15;;;;;;;;;;;;;;;;;;4997572;28;19948;-92
2023/08/01 00:43:41;;;;;;;;;;;;;;;;;;5013699;28;19964;-92
2023/08/01 00:46:07;;;;;;;;;;;;;;;;;;4997161;28;19979;-93
2023/08/01 00:48:32;;;;;;;;;;;;;;;;;;4997763;28;19976;-91
2023/08/01 00:50:58;;;;;;;;;;;;;;;;;;5013630;28;20012;-92
2023/08/01 00:53:24;;;;;;;;;;;;;;;;;;4996998;28;19992;-90
2023/08/01 00:55:50;;;;;;;;;;;;;;;;;;5014269;28;20012;-91
2023/08/01 00:58:16;;;;;;;;;;;;;;;;;;5012918;28;19921;-91
2023/08/01 01:00:42;;;;;;;;;;;;;;;;;;5014161;28;19921;-91
2023/08/01 01:03:08;;;;;;;;;;;;;;;;;;5012794;28;19925;-91
2023/08/01 01:05:34;;;;;;;;;;;;;;;;;;5013231;28;19933;-91
2023/08/01 01:08:00;;;;;;;;;;;;;;;;;;5013060;28;20179;-91
2023/08/01 01:10:26;;;;;;;;;;;;;;;;;;4996791;28;20365;-91
2023/08/01 01:12:52;;;;;;;;;;;;;;;;;;4996508;28;19921;-91
2023/08/01 01:15:18;;;;;;;;;;;;;;;;;;4996420;28;19922;-91
2023/08/01 01:17:44;;;;;;;;;;;;;;;;;;5012968;28;19976;-91
2023/08/01 01:20:10;;;;;;;;;;;;;;;;;;5012892;28;19921;-92
2023/08/01 01:22:36;;;;;;;;;;;;;;;;;;4996188;28;19922;-91
2023/08/01 01:25:02;;;;;;;;;;;;;;;;;;4996649;28;20081;-91
2023/08/01 01:27:28;;;;;;;;;;;;;;;;;;5013990;28;19968;-91
2023/08/01 01:29:54;;;;;;;;;;;;;;;;;;4996652;28;19925;-92
2023/08/01 01:32:20;;;;;;;;;;;;;;;;;;4996692;28;19927;-92
2023/08/01 01:34:46;;;;;;;;;;;;;;;;;;4996461;28;19973;-92
2023/08/01 01:37:12;;;;;;;;;;;;;;;;;;4996343;28;20021;-92
2023/08/01 01:39:37;;;;;;;;;;;;;;;;;;5012378;28;20063;-91
2023/08/01 01:42:06;;;;;;;;;;;;;;;;;;5012735;28;20052;-91
2023/08/01 01:44:32;;;;;;;;;;;;;;;;;;4995857;28;19921;-92
2023/08/01 01:46:58;;;;;;;;;;;;;;;;;;4995893;28;19925;-92
2023/08/01 01:49:26;;;;;;;;;;;;;;;;;;4996201;28;19932;-92
2023/08/01 01:51:51;;;;;;;;;;;;;;;;;;4995329;28;19925;-93
2023/08/01 01:54:17;;;;;;;;;;;;;;;;;;4995780;28;19922;-93
2023/08/01 01:56:43;;;;;;;;;;;;;;;;;;5012396;28;19928;-92
2023/08/01 01:59:09;;;;;;;;;;;;;;;;;;5012562;28;19922;-92
2023/08/01 02:01:35;;;;;;;;;;;;;;;;;;5012398;28;19971;-92
2023/08/01 02:04:02;;;;;;;;;;;;;;;;;;4995963;28;19921;-93
2023/08/01 02:06:28;;;;;;;;;;;;;;;;;;5012081;28;20403;-92
2023/08/01 02:08:54;;;;;;;;;;;;;;;;;;5012077;28;19925;-92
2023/08/01 02:11:20;;;;;;;;;;;;;;;;;;4995725;28;19921;-93
2023/08/01 02:13:46;;;;;;;;;;;;;;;;;;4995734;28;19922;-92
2023/08/01 02:16:12;;;;;;;;;;;;;;;;;;5012059;28;19921;-93
2023/08/01 02:18:38;;;;;;;;;;;;;;;;;;4995671;28;19927;-94
2023/08/01 02:21:03;;;;;;;;;;;;;;;;;;4995896;28;19926;-93
2023/08/01 02:23:29;;;;;;;;;;;;;;;;;;5012099;28;20466;-92
2023/08/01 02:25:55;;;;;;;;;;;;;;;;;;4995706;28;20428;-93
2023/08/01 02:28:21;;;;;;;;;;;;;;;;;;5012274;28;19922;-92
2023/08/01 02:30:47;;;;;;;;;;;;;;;;;;4995955;28;19921;-93
2023/08/01 02:33:13;;;;;;;;;;;;;;;;;;5012103;28;19928;-92
2023/08/01 02:35:40;;;;;;;;;;;;;;;;;;5012057;28;20004;-91
2023/08/01 02:38:06;;;;;;;;;;;;;;;;;;5012105;28;20441;-92
2023/08/01 02:40:32;;;;;;;;;;;;;;;;;;4995659;28;19969;-92
2023/08/01 02:42:58;;;;;;;;;;;;;;;;;;4995679;28;20008;-93
2023/08/01 02:45:25;;;;;;;;;;;;;;;;;;5011969;28;19926;-93
2023/08/01 02:47:51;;;;;;;;;;;;;;;;;;5012835;28;19976;-92
2023/08/01 02:50:16;;;;;;;;;;;;;;;;;;5011789;28;19922;-92
2023/08/01 02:52:42;;;;;;;;;;;;;;;;;;4995155;28;19926;-93
2023/08/01 02:55:08;;;;;;;;;;;;;;;;;;4995745;28;19922;-92
2023/08/01 02:57:34;;;;;;;;;;;;;;;;;;4994926;28;19926;-92
2023/08/01 03:00:00;;;;;;;;;;;;;;;;;;4995603;28;19921;-92
2023/08/01 03:02:27;;;;;;;;;;;;;;;;;;5010814;28;19973;-92
2023/08/01 03:04:53;;;;;;;;;;;;;;;;;;4997256;28;19984;-92
2023/08/01 03:07:19;;;;;;;;;;;;;;;;;;4997754;28;19921;-92
2023/08/01 03:09:45;;;;;;;;;;;;;;;;;;4997774;28;20044;-91
2023/08/01 03:12:11;;;;;;;;;;;;;;;;;;5014064;28;20431;-92
2023/08/01 03:14:37;;;;;;;;;;;;;;;;;;5013787;28;19926;-91
2023/08/01 03:17:03;;;;;;;;;;;;;;;;;;4997556;28;19979;-91
2023/08/01 03:19:29;;;;;;;;;;;;;;;;;;5014132;28;19921;-91
2023/08/01 03:21:55;;;;;;;;;;;;;;;;;;4997224;28;20199;-91
2023/08/01 03:24:21;;;;;;;;;;;;;;;;;;5013859;28;19922;-91
2023/08/01 03:26:47;;;;;;;;;;;;;;;;;;5014051;28;19988;-92
2023/08/01 03:29:13;;;;;;;;;;;;;;;;;;4997504;28;19980;-90
2023/08/01 03:31:39;;;;;;;;;;;;;;;;;;4997330;28;19921;-91
2023/08/01 03:34:08;;;;;;;;;;;;;;;;;;4997290;28;19932;-91
2023/08/01 03:36:34;;;;;;;;;;;;;;;;;;4997221;28;19926;-91
2023/08/01 03:39:00;;;;;;;;;;;;;;;;;;5013499;28;19921;-90
2023/08/01 03:41:26;;;;;;;;;;;;;;;;;;5013301;28;19928;-90
2023/08/01 03:43:52;;;;;;;;;;;;;;;;;;4997094;28;19925;-90
2023/08/01 03:46:18;;;;;;;;;;;;;;;;;;5013181;28;20012;-90
2023/08/01 03:48:43;;;;;;;;;;;;;;;;;;4996843;28;20330;-90
2023/08/01 03:51:09;;;;;;;;;;;;;;;;;;4997164;28;20024;-91
2023/08/01 03:53:36;;;;;;;;;;;;;;;;;;4997041;28;19929;-91
2023/08/01 03:56:02;;;;;;;;;;;;;;;;;;5013229;28;20318;-91
2023/08/01 03:58:28;;;;;;;;;;;;;;;;;;5014565;28;20067;-90
2023/08/01 04:00:54;;;;;;;;;;;;;;;;;;4940681;28;2090447;-91
2023/08/01 04:03:21;;;;;;;;;;;;;;;;;;5014417;28;20206;-89
2023/08/01 04:05:47;;;;;;;;;;;;;;;;;;4997557;28;20024;-92
2023/08/01 04:08:13;;;;;;;;;;;;;;;;;;5003776;28;19961;-89
2023/08/01 04:10:39;;;;;;;;;;;;;;;;;;5014766;28;20330;-90
2023/08/01 04:13:05;;;;;;;;;;;;;;;;;;5014083;28;20115;-89
2023/08/01 04:15:30;;;;;;;;;;;;;;;;;;5015021;28;19933;-93
2023/08/01 04:17:56;;;;;;;;;;;;;;;;;;4998026;28;19921;-94
2023/08/01 04:20:23;;;;;;;;;;;;;;;;;;5014130;28;19928;-90
2023/08/01 04:22:49;;;;;;;;;;;;;;;;;;5014159;28;19921;-90
2023/08/01 04:25:15;;;;;;;;;;;;;;;;;;4997586;28;19930;-90
2023/08/01 04:27:41;;;;;;;;;;;;;;;;;;4997642;28;19982;-90
2023/08/01 04:30:07;;;;;;;;;;;;;;;;;;4997207;28;20377;-90
2023/08/01 04:32:32;;;;;;;;;;;;;;;;;;5014969;28;19922;-90
2023/08/01 04:34:58;;;;;;;;;;;;;;;;;;4997337;28;19926;-90
2023/08/01 04:37:25;;;;;;;;;;;;;;;;;;4997046;28;19925;-90
2023/08/01 04:39:51;;;;;;;;;;;;;;;;;;4997157;28;20012;-91
2023/08/01 04:42:17;;;;;;;;;;;;;;;;;;5013670;28;20354;-89
2023/08/01 04:44:43;;;;;;;;;;;;;;;;;;5014546;28;19929;-90
2023/08/01 04:47:09;;;;;;;;;;;;;;;;;;5013583;28;20148;-92
2023/08/01 04:49:35;;;;;;;;;;;;;;;;;;5013569;28;19926;-91
2023/08/01 04:52:01;;;;;;;;;;;;;;;;;;4992754;28;19922;-91
2023/08/01 04:54:27;;;;;;;;;;;;;;;;;;5026074;28;19953;-91
2023/08/01 04:56:53;;;;;;;;;;;;;;;;;;5025481;28;19922;-92
2023/08/01 04:59:19;;;;;;;;;;;;;;;;;;5026801;28;19928;-90
2023/08/01 05:01:46;;;;;;;;;;;;;;;;;;5026040;28;20365;-90
2023/08/01 05:04:12;;;;;;;;;;;;;;;;;;5009847;28;19933;-91
2023/08/01 05:06:38;;;;;;;;;;;;;;;;;;5010106;28;19926;-91
2023/08/01 05:09:04;;;;;;;;;;;;;;;;;;5026714;28;20017;-91
2023/08/01 05:11:30;;;;;;;;;;;;;;;;;;5026455;28;19929;-89
2023/08/01 05:13:56;;;;;;;;;;;;;;;;;;5010199;28;19922;-90
2023/08/01 05:16:22;;;;;;;;;;;;;;;;;;5025967;28;19921;-90
2023/08/01 05:18:48;;;;;;;;;;;;;;;;;;4994651;28;20238;-89
2023/08/01 05:21:14;;;;;;;;;;;;;;;;;;5025812;28;20016;-90
2023/08/01 05:23:39;;;;;;;;;;;;;;;;;;4994372;28;19921;-90
2023/08/01 05:26:05;;;;;;;;;;;;;;;;;;5025082;28;19925;-91
2023/08/01 05:28:31;;;;;;;;;;;;;;;;;;5025795;28;20394;-92
2023/08/01 05:30:57;;;;;;;;;;;;;;;;;;5025977;28;20026;-92
2023/08/01 05:33:23;;;;;;;;;;;;;;;;;;5009640;28;20003;-90
2023/08/01 05:35:50;;;;;;;;;;;;;;;;;;5027559;28;20035;-91
2023/08/01 05:38:16;;;;;;;;;;;;;;;;;;4996397;28;19975;-89
2023/08/01 05:40:42;;;;;;;;;;;;;;;;;;5012582;28;19929;-90
2023/08/01 05:43:08;;;;;;;;;;;;;;;;;;5012490;28;20281;-90
2023/08/01 05:45:34;;;;;;;;;;;;;;;;;;5007123;28;20271;-90
2023/08/01 05:48:00;;;;;;;;;;;;;;;;;;5011798;28;19975;-90
2023/08/01 05:50:26;;;;;;;;;;;;;;;;;;5012022;28;19976;-90
2023/08/01 05:52:52;;;;;;;;;;;;;;;;;;4995896;28;19926;-90
2023/08/01 05:55:17;;;;;;;;;;;;;;;;;;4995873;28;20039;-90
2023/08/01 05:57:43;;;;;;;;;;;;;;;;;;5011845;28;19922;-89
2023/08/01 06:00:09;;;;;;;;;;;;;;;;;;4995690;28;20301;-90
2023/08/01 06:02:35;;;;;;;;;;;;;;;;;;4995464;28;19926;-90
2023/08/01 06:05:01;;;;;;;;;;;;;;;;;;4995145;28;19933;-90
2023/08/01 06:07:27;;;;;;;;;;;;;;;;;;4995388;28;19984;-90
2023/08/01 06:09:53;;;;;;;;;;;;;;;;;;5012312;28;19933;-90
2023/08/01 06:12:19;;;;;;;;;;;;;;;;;;4995321;28;19964;-90
2023/08/01 06:14:45;;;;;;;;;;;;;;;;;;4995259;28;20226;-90
2023/08/01 06:17:11;;;;;;;;;;;;;;;;;;5011731;28;19969;-90
2023/08/01 06:19:37;;;;;;;;;;;;;;;;;;4995084;28;19922;-90
2023/08/01 06:22:03;;;;;;;;;;;;;;;;;;5011432;28;19952;-90
2023/08/01 06:24:29;;;;;;;;;;;;;;;;;;4994959;28;19921;-90
2023/08/01 06:26:54;;;;;;;;;;;;;;;;;;5012402;28;20329;-90
2023/08/01 06:29:20;;;;;;;;;;;;;;;;;;4995231;28;19921;-90
2023/08/01 06:31:46;;;;;;;;;;;;;;;;;;5011532;28;19921;-90
2023/08/01 06:34:12;;;;;;;;;;;;;;;;;;4994760;28;19921;-91
2023/08/01 06:36:38;;;;;;;;;;;;;;;;;;5011225;28;19921;-90
2023/08/01 06:39:05;;;;;;;;;;;;;;;;;;5011272;28;19926;-90
2023/08/01 06:41:30;;;;;;;;;;;;;;;;;;5012722;28;20373;-91
2023/08/01 06:43:56;;;;;;;;;;;;;;;;;;5012787;28;19929;-91
2023/08/01 06:46:22;;;;;;;;;;;;;;;;;;4995080;28;19926;-90
2023/08/01 06:48:48;;;;;;;;;;;;;;;;;;5013019;28;19952;-93
2023/08/01 06:51:14;;;;;;;;;;;;;;;;;;4995067;28;20004;-91
2023/08/01 06:53:40;;;;;;;;;;;;;;;;;;5012861;28;19928;-90
2023/08/01 06:56:06;;;;;;;;;;;;;;;;;;5027524;28;20361;-90
2023/08/01 06:58:32;;;;;;;;;;;;;;;;;;5011353;28;19929;-90
2023/08/01 07:00:58;;;;;;;;;;;;;;;;;;5011736;28;19921;-90
2023/08/01 07:03:24;;;;;;;;;;;;;;;;;;5012193;28;19921;-91
2023/08/01 07:05:49;;;;;;;;;;;;;;;;;;5012169;28;20297;-90
2023/08/01 07:08:15;;;;;;;;;;;;;;;;;;5011352;28;19918;-90
2023/08/01 07:10:41;;;;;;;;;;;;;;;;;;5010964;28;19929;-90
2023/08/01 07:13:07;;;;;;;;;;;;;;;;;;5011225;28;19941;-90
2023/08/01 07:15:33;;;;;;;;;;;;;;;;;;5010912;28;19921;-90
2023/08/01 07:17:59;;;;;;;;;;;;;;;;;;5011146;28;20314;-90
2023/08/01 07:20:25;;;;;;;;;;;;;;;;;;5012615;28;19931;-90
2023/08/01 07:22:51;;;;;;;;;;;;;;;;;;5027955;28;19922;-90
2023/08/01 07:25:19;;;;;;;;;;;;;;;;;;5010935;28;20057;-92
2023/08/01 07:27:44;;;;;;;;;;;;;;;;;;5027739;28;20020;-91
2023/08/01 07:30:10;;;;;;;;;;;;;;;;;;4993633;28;19961;-91
2023/08/01 07:32:39;;;;;;;;;;;;;;;;;;4975424;28;19921;-91
2023/08/01 07:35:05;;;;;;;;;;;;;;;;;;4991430;28;19925;-91
2023/08/01 07:37:31;;;;;;;;;;;;;;;;;;4975315;28;19922;-91
2023/08/01 07:39:57;;;;;;;;;;;;;;;;;;4991867;28;20269;-91
2023/08/01 07:42:23;;;;;;;;;;;;;;;;;;4991498;28;19932;-90
2023/08/01 07:44:49;;;;;;;;;;;;;;;;;;4991484;28;19922;-91
2023/08/01 07:47:15;;;;;;;;;;;;;;;;;;4975582;28;20363;-91
2023/08/01 07:49:41;;;;;;;;;;;;;;;;;;4993594;28;19936;-91
2023/08/01 07:52:07;;;;;;;;;;;;;;;;;;4979175;28;19922;-90
2023/08/01 07:54:33;;;;;;;;;;;;;;;;;;4994804;28;19944;-90
2023/08/01 07:56:59;;;;;;;;;;;;;;;;;;4994836;28;19922;-91
2023/08/01 07:59:25;;;;;;;;;;;;;;;;;;4979054;28;19979;-91
2023/08/01 08:01:51;;;;;;;;;;;;;;;;;;4978432;28;19969;-91
2023/08/01 08:04:17;;;;;;;;;;;;;;;;;;4994677;28;20475;-91
2023/08/01 08:06:43;;;;;;;;;;;;;;;;;;4994518;28;20021;-91
2023/08/01 08:09:09;;;;;;;;;;;;;;;;;;4994493;28;19929;-91
2023/08/01 08:11:34;;;;;;;;;;;;;;;;;;4994160;28;20285;-90
2023/08/01 08:14:00;;;;;;;;;;;;;;;;;;4978470;28;19925;-92
2023/08/01 08:16:26;;;;;;;;;;;;;;;;;;4994948;28;20285;-94
2023/08/01 08:18:52;;;;;;;;;;;;;;;;;;4994190;28;19921;-91
2023/08/01 08:21:18;;;;;;;;;;;;;;;;;;4978547;28;20383;-91
2023/08/01 08:23:44;;;;;;;;;;;;;;;;;;4978181;28;20004;-89
2023/08/01 08:26:10;;;;;;;;;;;;;;;;;;4994117;28;19980;-89
2023/08/01 08:28:36;;;;;;;;;;;;;;;;;;4977891;28;19926;-92
2023/08/01 08:31:03;;;;;;;;;;;;;;;;;;4994181;28;19949;-90
2023/08/01 08:33:29;;;;;;;;;;;;;;;;;;4993985;28;19922;-89
2023/08/01 08:35:55;;;;;;;;;;;;;;;;;;4994148;28;20424;-89
2023/08/01 08:38:20;;;;;;;;;;;;;;;;;;4993773;28;20310;-90
2023/08/01 08:40:48;;;;;;;;;;;;;;;;;;4993896;28;20020;-89
2023/08/01 08:43:13;;;;;;;;;;;;;;;;;;4977470;28;19921;-88
2023/08/01 08:45:39;;;;;;;;;;;;;;;;;;4994054;28;19926;-89
2023/08/01 08:48:05;;;;;;;;;;;;;;;;;;4977513;28;20335;-90
2023/08/01 08:50:31;;;;;;;;;;;;;;;;;;4977141;28;19929;-89
2023/08/01 08:52:57;;;;;;;;;;;;;;;;;;4993610;28;19929;-90
2023/08/01 08:55:23;;;;;;;;;;;;;;;;;;4999719;28;19996;-89
2023/08/01 08:57:50;;;;;;;;;;;;;;;;;;5029826;28;19922;-89
2023/08/01 09:00:16;;;;;;;;;;;;;;;;;;5012380;28;19925;-90
2023/08/01 09:02:42;;;;;;;;;;;;;;;;;;5012486;28;20279;-91
2023/08/01 09:05:08;;;;;;;;;;;;;;;;;;5013120;28;19976;-88
2023/08/01 09:07:34;;;;;;;;;;;;;;;;;;5012786;28;19995;-89
2023/08/01 09:10:00;;;;;;;;;;;;;;;;;;5012869;28;19925;-87
2023/08/01 09:12:26;;;;;;;;;;;;;;;;;;5012857;28;20338;-89
2023/08/01 09:14:52;;;;;;;;;;;;;;;;;;5029626;28;19929;-88
2023/08/01 09:17:18;;;;;;;;;;;;;;;;;;5013933;28;19928;-88
2023/08/01 09:19:44;;;;;;;;;;;;;;;;;;5012611;28;19929;-90
2023/08/01 09:22:10;;;;;;;;;;;;;;;;;;5012676;28;20010;-89
2023/08/01 09:24:36;;;;;;;;;;;;;;;;;;5028516;28;19984;-90
2023/08/01 09:27:03;;;;;;;;;;;;;;;;;;5028635;28;19925;-90
2023/08/01 09:29:31;;;;;;;;;;;;;;;;;;5012777;28;20377;-89
2023/08/01 09:31:57;;;;;;;;;;;;;;;;;;5012405;28;19995;-88
2023/08/01 09:34:23;;;;;;;;;;;;;;;;;;5012415;28;19925;-89
2023/08/01 09:36:49;;;;;;;;;;;;;;;;;;5028691;28;19991;-88
2023/08/01 09:39:15;;;;;;;;;;;;;;;;;;5012663;28;19968;-89
2023/08/01 09:41:40;;;;;;;;;;;;;;;;;;5012241;28;19925;-88
2023/08/01 09:44:06;;;;;;;;;;;;;;;;;;5012276;28;19921;-88
2023/08/01 09:46:32;;;;;;;;;;;;;;;;;;5012376;28;19925;-89
2023/08/01 09:48:58;;;;;;;;;;;;;;;;;;5009907;28;20385;-89
2023/08/01 09:51:24;;;;;;;;;;;;;;;;;;5013198;28;19933;-88
2023/08/01 09:53:50;;;;;;;;;;;;;;;;;;5012236;28;20269;-88
2023/08/01 09:56:16;;;;;;;;;;;;;;;;;;5012485;28;20072;-88
2023/08/01 09:58:42;;;;;;;;;;;;;;;;;;5012756;28;19932;-88
2023/08/01 10:01:08;;;;;;;;;;;;;;;;;;5013093;28;19921;-88
2023/08/01 10:03:34;;;;;;;;;;;;;;;;;;5011809;28;20011;-88
2023/08/01 10:06:00;;;;;;;;;;;;;;;;;;5011541;28;20296;-88
2023/08/01 10:08:27;;;;;;;;;;;;;;;;;;5013157;28;19928;-88
2023/08/01 10:10:56;;;;;;;;;;;;;;;;;;5011594;28;19917;-88
2023/08/01 10:13:22;;;;;;;;;;;;;;;;;;5011130;28;19956;-88
2023/08/01 10:15:48;;;;;;;;;;;;;;;;;;5012743;28;19921;-88
2023/08/01 10:18:14;;;;;;;;;;;;;;;;;;5003676;28;20013;-88
2023/08/01 10:20:40;;;;;;;;;;;;;;;;;;4993169;28;19928;-88
2023/08/01 10:23:06;;;;;;;;;;;;;;;;;;4992152;28;20389;-93
2023/08/01 10:25:32;;;;;;;;;;;;;;;;;;4992354;28;20286;-88
2023/08/01 10:27:58;;;;;;;;;;;;;;;;;;4992064;28;19984;-88
2023/08/01 10:30:24;;;;;;;;;;;;;;;;;;4993358;28;20008;-89
2023/08/01 10:32:50;;;;;;;;;;;;;;;;;;4975692;28;20401;-90
2023/08/01 10:35:16;;;;;;;;;;;;;;;;;;4991986;28;20008;-91
2023/08/01 10:37:42;;;;;;;;;;;;;;;;;;4992099;28;20060;-91
2023/08/01 10:40:08;;;;;;;;;;;;;;;;;;4992116;28;19991;-90
2023/08/01 10:42:36;;;;;;;;;;;;;;;;;;4976339;28;20288;-91
2023/08/01 10:45:02;;;;;;;;;;;;;;;;;;4992224;28;20024;-90
2023/08/01 10:47:28;;;;;;;;;;;;;;;;;;4995225;28;20024;-91
2023/08/01 10:49:54;;;;;;;;;;;;;;;;;;4979248;28;20108;-91
2023/08/01 10:52:21;;;;;;;;;;;;;;;;;;4977244;28;19925;-91
2023/08/01 10:54:47;;;;;;;;;;;;;;;;;;4991950;28;20021;-90
2023/08/01 10:57:13;;;;;;;;;;;;;;;;;;4975377;28;20032;-92
2023/08/01 10:59:39;;;;;;;;;;;;;;;;;;4975724;28;19997;-92
2023/08/01 11:02:05;;;;;;;;;;;;;;;;;;4975149;28;20062;-92
2023/08/01 11:04:31;;;;;;;;;;;;;;;;;;4975355;28;20048;-92
2023/08/01 11:06:57;;;;;;;;;;;;;;;;;;4991597;28;19968;-91
2023/08/01 11:09:23;;;;;;;;;;;;;;;;;;4999988;28;19921;-89
2023/08/01 11:11:49;;;;;;;;;;;;;;;;;;5010984;28;20008;-90
2023/08/01 11:14:15;;;;;;;;;;;;;;;;;;5027484;28;19984;-91
2023/08/01 11:16:41;;;;;;;;;;;;;;;;;;5026866;28;20369;-92
2023/08/01 11:19:07;;;;;;;;;;;;;;;;;;5010946;28;19968;-89
2023/08/01 11:21:36;;;;;;;;;;;;;;;;;;5010876;28;20285;-89
2023/08/01 11:24:02;;;;;;;;;;;;;;;;;;4994914;28;20019;-90
2023/08/01 11:26:27;;;;;;;;;;;;;;;;;;4998483;28;19996;-92
2023/08/01 11:28:53;;;;;;;;;;;;;;;;;;4998295;28;20012;-92
2023/08/01 11:31:19;;;;;;;;;;;;;;;;;;5015409;28;19973;-93
2023/08/01 11:33:45;;;;;;;;;;;;;;;;;;4999373;28;20028;-93
2023/08/01 11:36:11;;;;;;;;;;;;;;;;;;5015256;28;19927;-93
2023/08/01 11:38:38;;;;;;;;;;;;;;;;;;4999040;28;20004;-91
2023/08/01 11:41:04;;;;;;;;;;;;;;;;;;4996310;28;19972;-93
2023/08/01 11:43:30;;;;;;;;;;;;;;;;;;5014807;28;19921;-93
2023/08/01 11:45:56;;;;;;;;;;;;;;;;;;5014722;28;19926;-93
2023/08/01 11:48:22;;;;;;;;;;;;;;;;;;5014954;28;19921;-91
2023/08/01 11:50:48;;;;;;;;;;;;;;;;;;5015151;28;19945;-92
2023/08/01 11:53:14;;;;;;;;;;;;;;;;;;5031270;28;20377;-93
2023/08/01 11:55:40;;;;;;;;;;;;;;;;;;5014996;28;19926;-94
2023/08/01 11:58:06;;;;;;;;;;;;;;;;;;5014617;28;20488;-92
2023/08/01 12:00:32;;;;;;;;;;;;;;;;;;5016228;28;19922;-92
2023/08/01 12:02:58;;;;;;;;;;;;;;;;;;5031249;28;20493;-91
2023/08/01 12:05:24;;;;;;;;;;;;;;;;;;5031261;28;20292;-92
2023/08/01 12:07:50;;;;;;;;;;;;;;;;;;5014736;28;19972;-93
2023/08/01 12:10:16;;;;;;;;;;;;;;;;;;5030797;28;19921;-92
2023/08/01 12:12:42;;;;;;;;;;;;;;;;;;5014561;28;19925;-91
2023/08/01 12:15:08;;;;;;;;;;;;;;;;;;5014224;28;19929;-94
2023/08/01 12:17:36;;;;;;;;;;;;;;;;;;5014308;28;20421;-92
2023/08/01 12:20:02;;;;;;;;;;;;;;;;;;5014401;28;19921;-92
2023/08/01 12:22:28;;;;;;;;;;;;;;;;;;5031122;28;19980;-92
2023/08/01 12:24:54;;;;;;;;;;;;;;;;;;5014140;28;20316;-92
2023/08/01 12:27:20;;;;;;;;;;;;;;;;;;5014014;28;19987;-90
2023/08/01 12:29:46;;;;;;;;;;;;;;;;;;5013639;28;19975;-91
2023/08/01 12:32:13;;;;;;;;;;;;;;;;;;5014257;28;19929;-92
2023/08/01 12:34:39;;;;;;;;;;;;;;;;;;5013554;28;19959;-89
2023/08/01 12:37:05;;;;;;;;;;;;;;;;;;5030808;28;20262;-91
2023/08/01 12:39:31;;;;;;;;;;;;;;;;;;5013524;28;19921;-91
2023/08/01 12:41:59;;;;;;;;;;;;;;;;;;5015165;28;19929;-96
2023/08/01 12:44:26;;;;;;;;;;;;;;;;;;5015255;28;19929;-94
2023/08/01 12:46:53;;;;;;;;;;;;;;;;;;5016087;28;19973;-95
2023/08/01 12:49:19;;;;;;;;;;;;;;;;;;5016335;28;20373;-92
2023/08/01 12:51:45;;;;;;;;;;;;;;;;;;5013830;28;20012;-91
2023/08/01 12:54:11;;;;;;;;;;;;;;;;;;5030143;28;19921;-90
2023/08/01 12:56:38;;;;;;;;;;;;;;;;;;5014633;28;19921;-92
2023/08/01 12:59:04;;;;;;;;;;;;;;;;;;5013389;28;20412;-93
2023/08/01 13:01:30;;;;;;;;;;;;;;;;;;5012912;28;19922;-93
2023/08/01 13:03:56;;;;;;;;;;;;;;;;;;4996742;28;20062;-92
2023/08/01 13:06:22;;;;;;;;;;;;;;;;;;4996809;28;20024;-92
2023/08/01 13:08:48;;;;;;;;;;;;;;;;;;5013664;28;19921;-92
2023/08/01 13:11:14;;;;;;;;;;;;;;;;;;4997015;28;19921;-92
2023/08/01 13:13:40;;;;;;;;;;;;;;;;;;5013029;28;20036;-91
2023/08/01 13:16:06;;;;;;;;;;;;;;;;;;5013530;28;19921;-93
2023/08/01 13:18:32;;;;;;;;;;;;;;;;;;5014497;28;19921;-91
2023/08/01 13:20:59;;;;;;;;;;;;;;;;;;5013276;28;19925;-92
2023/08/01 13:23:25;;;;;;;;;;;;;;;;;;4996799;28;19932;-91
2023/08/01 13:25:51;;;;;;;;;;;;;;;;;;5013019;28;19929;-92
2023/08/01 13:28:17;;;;;;;;;;;;;;;;;;4997065;28;19921;-93
2023/08/01 13:30:42;;;;;;;;;;;;;;;;;;5013247;28;20330;-92
2023/08/01 13:33:08;;;;;;;;;;;;;;;;;;5013431;28;19922;-91
2023/08/01 13:35:34;;;;;;;;;;;;;;;;;;4996535;28;19925;-92
2023/08/01 13:38:01;;;;;;;;;;;;;;;;;;5014132;28;19928;-92
2023/08/01 13:40:27;;;;;;;;;;;;;;;;;;5012471;28;19921;-92
2023/08/01 13:42:53;;;;;;;;;;;;;;;;;;4996407;28;20422;-92
2023/08/01 13:45:19;;;;;;;;;;;;;;;;;;5012651;28;19936;-92
2023/08/01 13:47:44;;;;;;;;;;;;;;;;;;5012034;28;19925;-91
2023/08/01 13:50:10;;;;;;;;;;;;;;;;;;4996360;28;19928;-91
2023/08/01 13:52:36;;;;;;;;;;;;;;;;;;4995994;28;19928;-92
2023/08/01 13:55:02;;;;;;;;;;;;;;;;;;4996328;28;20012;-91
2023/08/01 13:57:29;;;;;;;;;;;;;;;;;;4996562;28;20277;-92
2023/08/01 13:59:55;;;;;;;;;;;;;;;;;;5012829;28;19944;-91
2023/08/01 14:02:21;;;;;;;;;;;;;;;;;;4996248;28;20377;-92
2023/08/01 14:04:47;;;;;;;;;;;;;;;;;;4995898;28;19925;-91
2023/08/01 14:07:13;;;;;;;;;;;;;;;;;;4995606;28;20235;-91
2023/08/01 14:09:39;;;;;;;;;;;;;;;;;;5012248;28;19929;-92
2023/08/01 14:12:05;;;;;;;;;;;;;;;;;;4998759;28;19936;-92
2023/08/01 14:14:31;;;;;;;;;;;;;;;;;;5013560;28;20001;-91
2023/08/01 14:16:57;;;;;;;;;;;;;;;;;;4995738;28;19929;-92
2023/08/01 14:19:23;;;;;;;;;;;;;;;;;;4995688;28;19925;-92
2023/08/01 14:21:49;;;;;;;;;;;;;;;;;;5013182;28;19922;-92
2023/08/01 14:24:15;;;;;;;;;;;;;;;;;;5012161;28;19929;-91
2023/08/01 14:26:41;;;;;;;;;;;;;;;;;;4995899;28;20345;-92
2023/08/01 14:29:07;;;;;;;;;;;;;;;;;;4995844;28;19925;-91
2023/08/01 14:31:33;;;;;;;;;;;;;;;;;;4995929;28;19922;-92
2023/08/01 14:33:59;;;;;;;;;;;;;;;;;;4996426;28;20007;-91
2023/08/01 14:36:24;;;;;;;;;;;;;;;;;;5012727;28;20017;-91
2023/08/01 14:38:54;;;;;;;;;;;;;;;;;;4995216;28;20016;-91
2023/08/01 14:41:20;;;;;;;;;;;;;;;;;;5011788;28;19926;-91
2023/08/01 14:43:46;;;;;;;;;;;;;;;;;;4995644;28;20242;-91
2023/08/01 14:46:12;;;;;;;;;;;;;;;;;;4995466;28;20444;-91
2023/08/01 14:48:38;;;;;;;;;;;;;;;;;;4995247;28;19922;-92
2023/08/01 14:51:04;;;;;;;;;;;;;;;;;;4995217;28;19929;-90
2023/08/01 14:53:30;;;;;;;;;;;;;;;;;;4995153;28;19928;-91
2023/08/01 14:55:55;;;;;;;;;;;;;;;;;;4994779;28;20336;-92
2023/08/01 14:58:21;;;;;;;;;;;;;;;;;;4996355;28;19967;-92
2023/08/01 15:00:47;;;;;;;;;;;;;;;;;;5015662;28;19948;-91
2023/08/01 15:03:14;;;;;;;;;;;;;;;;;;5015625;28;19980;-92
2023/08/01 15:05:40;;;;;;;;;;;;;;;;;;4999204;28;19925;-92
2023/08/01 15:08:06;;;;;;;;;;;;;;;;;;4999250;28;20294;-92
2023/08/01 15:10:31;;;;;;;;;;;;;;;;;;4999302;28;19928;-90
2023/08/01 15:12:57;;;;;;;;;;;;;;;;;;4998937;28;19961;-89
2023/08/01 15:15:23;;;;;;;;;;;;;;;;;;5016587;28;19925;-89
2023/08/01 15:17:49;;;;;;;;;;;;;;;;;;4998682;28;19975;-90
2023/08/01 15:20:15;;;;;;;;;;;;;;;;;;4998679;28;19983;-89
2023/08/01 15:22:41;;;;;;;;;;;;;;;;;;5014946;28;19928;-90
2023/08/01 15:25:07;;;;;;;;;;;;;;;;;;5015109;28;19921;-90
2023/08/01 15:27:33;;;;;;;;;;;;;;;;;;5016294;28;20000;-90
2023/08/01 15:29:59;;;;;;;;;;;;;;;;;;5014886;28;20013;-89
2023/08/01 15:32:25;;;;;;;;;;;;;;;;;;5016071;28;19925;-90
2023/08/01 15:34:50;;;;;;;;;;;;;;;;;;4998525;28;19941;-90
2023/08/01 15:37:16;;;;;;;;;;;;;;;;;;5014746;28;19921;-90
2023/08/01 15:39:42;;;;;;;;;;;;;;;;;;4998281;28;19922;-90
2023/08/01 15:42:08;;;;;;;;;;;;;;;;;;4998250;28;19921;-91
2023/08/01 15:44:34;;;;;;;;;;;;;;;;;;5014596;28;19922;-91
2023/08/01 15:47:00;;;;;;;;;;;;;;;;;;4998362;28;20227;-91
2023/08/01 15:49:26;;;;;;;;;;;;;;;;;;5014664;28;19928;-92
2023/08/01 15:51:52;;;;;;;;;;;;;;;;;;4998007;28;19922;-91
2023/08/01 15:54:18;;;;;;;;;;;;;;;;;;4999262;28;19921;-92
2023/08/01 15:56:44;;;;;;;;;;;;;;;;;;5001294;28;19944;-91
2023/08/01 15:59:10;;;;;;;;;;;;;;;;;;5012035;28;19921;-92
2023/08/01 16:01:35;;;;;;;;;;;;;;;;;;4997269;28;19933;-92
2023/08/01 16:04:01;;;;;;;;;;;;;;;;;;4998164;28;19941;-91
2023/08/01 16:06:27;;;;;;;;;;;;;;;;;;5013532;28;19947;-93
2023/08/01 16:08:53;;;;;;;;;;;;;;;;;;5014667;28;19953;-92
2023/08/01 16:11:19;;;;;;;;;;;;;;;;;;5014620;28;19921;-90
2023/08/01 16:13:45;;;;;;;;;;;;;;;;;;4997702;28;19960;-91
2023/08/01 16:16:11;;;;;;;;;;;;;;;;;;5013792;28;20373;-90
2023/08/01 16:18:37;;;;;;;;;;;;;;;;;;5013710;28;19928;-91
2023/08/01 16:21:03;;;;;;;;;;;;;;;;;;4996816;28;19921;-90
2023/08/01 16:23:29;;;;;;;;;;;;;;;;;;4992673;28;20320;-90
2023/08/01 16:25:55;;;;;;;;;;;;;;;;;;5029071;28;19987;-91
2023/08/01 16:28:21;;;;;;;;;;;;;;;;;;5013091;28;19921;-89
2023/08/01 16:30:47;;;;;;;;;;;;;;;;;;4997410;28;19923;-91
2023/08/01 16:33:14;;;;;;;;;;;;;;;;;;4997115;28;20432;-90
2023/08/01 16:35:40;;;;;;;;;;;;;;;;;;4997295;28;20565;-90
2023/08/01 16:38:05;;;;;;;;;;;;;;;;;;4997276;28;19928;-90